sensor_id;sensor_type;location;lat;lon;timestamp;temperature;humidity
78297;DHT22;67555;47.660;19.622;2023-04-15T00:01:25;9.00;72.50
78297;DHT22;67555;47.660;19.622;2023-04-15T00:03:52;9.00;72.50
78297;DHT22;67555;47.660;19.622;2023-04-15T00:06:21;9.00;72.40
78297;DHT22;67555;47.660;19.622;2023-04-15T00:08:48;9.00;72.50
78297;DHT22;67555;47.660;19.622;2023-04-15T00:11:15;8.90;72.50
78297;DHT22;67555;47.660;19.622;2023-04-15T00:13:41;8.90;72.70
78297;DHT22;67555;47.660;19.622;2023-04-15T00:16:08;8.90;72.90
78297;DHT22;67555;47.660;19.622;2023-04-15T00:18:34;8.90;73.00
78297;DHT22;67555;47.660;19.622;2023-04-15T00:21:00;8.90;73.00
78297;DHT22;67555;47.660;19.622;2023-04-15T00:23:27;9.00;72.80
78297;DHT22;67555;47.660;19.622;2023-04-15T00:25:52;9.00;72.80
78297;DHT22;67555;47.660;19.622;2023-04-15T00:28:18;9.00;72.60
78297;DHT22;67555;47.660;19.622;2023-04-15T00:30:44;9.00;72.60
78297;DHT22;67555;47.660;19.622;2023-04-15T00:33:11;9.00;72.60
78297;DHT22;67555;47.660;19.622;2023-04-15T00:35:37;9.00;72.50
78297;DHT22;67555;47.660;19.622;2023-04-15T00:38:04;9.10;72.60
78297;DHT22;67555;47.660;19.622;2023-04-15T00:40:30;9.10;72.60
78297;DHT22;67555;47.660;19.622;2023-04-15T00:42:56;9.10;72.60
78297;DHT22;67555;47.660;19.622;2023-04-15T00:45:21;9.20;72.60
78297;DHT22;67555;47.660;19.622;2023-04-15T00:47:47;9.10;72.70
78297;DHT22;67555;47.660;19.622;2023-04-15T00:50:13;9.20;72.60
78297;DHT22;67555;47.660;19.622;2023-04-15T00:52:39;9.20;72.50
78297;DHT22;67555;47.660;19.622;2023-04-15T00:55:06;9.20;72.50
78297;DHT22;67555;47.660;19.622;2023-04-15T00:57:32;9.20;72.50
78297;DHT22;67555;47.660;19.622;2023-04-15T00:59:58;9.20;72.50
78297;DHT22;67555;47.660;19.622;2023-04-15T01:02:24;9.20;72.50
78297;DHT22;67555;47.660;19.622;2023-04-15T01:04:50;9.20;72.50
78297;DHT22;67555;47.660;19.622;2023-04-15T01:07:16;9.20;72.50
78297;DHT22;67555;47.660;19.622;2023-04-15T01:09:42;9.20;72.50
78297;DHT22;67555;47.660;19.622;2023-04-15T01:12:11;9.20;72.50
78297;DHT22;67555;47.660;19.622;2023-04-15T01:14:37;9.20;72.60
78297;DHT22;67555;47.660;19.622;2023-04-15T01:17:03;9.10;72.70
78297;DHT22;67555;47.660;19.622;2023-04-15T01:19:28;9.10;72.80
78297;DHT22;67555;47.660;19.622;2023-04-15T01:21:55;9.10;72.80
78297;DHT22;67555;47.660;19.622;2023-04-15T01:24:23;9.10;72.80
78297;DHT22;67555;47.660;19.622;2023-04-15T01:26:50;9.10;72.80
78297;DHT22;67555;47.660;19.622;2023-04-15T01:29:16;9.00;73.20
78297;DHT22;67555;47.660;19.622;2023-04-15T01:31:50;9.00;73.30
78297;DHT22;67555;47.660;19.622;2023-04-15T01:34:16;9.10;73.20
78297;DHT22;67555;47.660;19.622;2023-04-15T01:36:42;9.10;73.00
78297;DHT22;67555;47.660;19.622;2023-04-15T01:39:08;9.00;73.10
78297;DHT22;67555;47.660;19.622;2023-04-15T01:41:33;9.00;73.50
78297;DHT22;67555;47.660;19.622;2023-04-15T01:43:59;8.90;73.70
78297;DHT22;67555;47.660;19.622;2023-04-15T01:46:26;8.90;73.80
78297;DHT22;67555;47.660;19.622;2023-04-15T01:48:52;8.90;73.80
78297;DHT22;67555;47.660;19.622;2023-04-15T01:51:17;8.90;73.80
78297;DHT22;67555;47.660;19.622;2023-04-15T01:53:43;8.90;73.90
78297;DHT22;67555;47.660;19.622;2023-04-15T01:56:09;9.00;73.80
78297;DHT22;67555;47.660;19.622;2023-04-15T01:58:35;9.00;73.70
78297;DHT22;67555;47.660;19.622;2023-04-15T02:01:02;9.00;73.50
78297;DHT22;67555;47.660;19.622;2023-04-15T02:03:28;9.10;73.40
78297;DHT22;67555;47.660;19.622;2023-04-15T02:05:54;9.20;73.20
78297;DHT22;67555;47.660;19.622;2023-04-15T02:08:20;9.20;73.20
78297;DHT22;67555;47.660;19.622;2023-04-15T02:10:45;9.20;73.00
78297;DHT22;67555;47.660;19.622;2023-04-15T02:13:11;9.20;73.00
78297;DHT22;67555;47.660;19.622;2023-04-15T02:15:37;9.30;72.80
78297;DHT22;67555;47.660;19.622;2023-04-15T02:18:03;9.40;72.70
78297;DHT22;67555;47.660;19.622;2023-04-15T02:20:29;9.40;72.70
78297;DHT22;67555;47.660;19.622;2023-04-15T02:22:55;9.40;72.70
78297;DHT22;67555;47.660;19.622;2023-04-15T02:25:21;9.40;72.60
78297;DHT22;67555;47.660;19.622;2023-04-15T02:27:47;9.50;72.50
78297;DHT22;67555;47.660;19.622;2023-04-15T02:30:13;9.50;72.50
78297;DHT22;67555;47.660;19.622;2023-04-15T02:32:39;9.50;72.40
78297;DHT22;67555;47.660;19.622;2023-04-15T02:35:08;9.60;72.30
78297;DHT22;67555;47.660;19.622;2023-04-15T02:37:35;9.60;72.30
78297;DHT22;67555;47.660;19.622;2023-04-15T02:40:08;9.60;72.20
78297;DHT22;67555;47.660;19.622;2023-04-15T02:42:39;9.60;72.20
78297;DHT22;67555;47.660;19.622;2023-04-15T02:45:06;9.60;72.20
78297;DHT22;67555;47.660;19.622;2023-04-15T02:47:33;9.60;72.20
78297;DHT22;67555;47.660;19.622;2023-04-15T02:49:59;9.60;72.20
78297;DHT22;67555;47.660;19.622;2023-04-15T02:52:26;9.60;72.20
78297;DHT22;67555;47.660;19.622;2023-04-15T02:54:52;9.60;72.10
78297;DHT22;67555;47.660;19.622;2023-04-15T02:57:22;9.70;72.20
78297;DHT22;67555;47.660;19.622;2023-04-15T02:59:47;9.70;72.10
78297;DHT22;67555;47.660;19.622;2023-04-15T03:02:13;9.70;72.10
78297;DHT22;67555;47.660;19.622;2023-04-15T03:04:39;9.60;72.20
78297;DHT22;67555;47.660;19.622;2023-04-15T03:07:04;9.60;72.20
78297;DHT22;67555;47.660;19.622;2023-04-15T03:09:30;9.60;72.30
78297;DHT22;67555;47.660;19.622;2023-04-15T03:11:56;9.60;72.40
78297;DHT22;67555;47.660;19.622;2023-04-15T03:14:22;9.50;72.50
78297;DHT22;67555;47.660;19.622;2023-04-15T03:16:48;9.50;72.60
78297;DHT22;67555;47.660;19.622;2023-04-15T03:19:15;9.50;72.70
78297;DHT22;67555;47.660;19.622;2023-04-15T03:21:41;9.50;72.80
78297;DHT22;67555;47.660;19.622;2023-04-15T03:24:06;9.50;72.90
78297;DHT22;67555;47.660;19.622;2023-04-15T03:26:32;9.50;72.90
78297;DHT22;67555;47.660;19.622;2023-04-15T03:28:58;9.50;72.90
78297;DHT22;67555;47.660;19.622;2023-04-15T03:31:23;9.60;72.90
78297;DHT22;67555;47.660;19.622;2023-04-15T03:33:49;9.60;73.00
78297;DHT22;67555;47.660;19.622;2023-04-15T03:36:15;9.60;73.10
78297;DHT22;67555;47.660;19.622;2023-04-15T03:38:41;9.50;73.20
78297;DHT22;67555;47.660;19.622;2023-04-15T03:41:07;9.50;73.60
78297;DHT22;67555;47.660;19.622;2023-04-15T03:43:33;9.50;73.70
78297;DHT22;67555;47.660;19.622;2023-04-15T03:45:59;9.50;73.70
78297;DHT22;67555;47.660;19.622;2023-04-15T03:48:25;9.50;73.90
78297;DHT22;67555;47.660;19.622;2023-04-15T03:50:51;9.50;74.00
78297;DHT22;67555;47.660;19.622;2023-04-15T03:53:17;9.50;74.10
78297;DHT22;67555;47.660;19.622;2023-04-15T03:55:42;9.60;74.00
78297;DHT22;67555;47.660;19.622;2023-04-15T03:58:09;9.60;74.10
78297;DHT22;67555;47.660;19.622;2023-04-15T04:00:37;9.60;74.00
78297;DHT22;67555;47.660;19.622;2023-04-15T04:03:03;9.60;74.10
78297;DHT22;67555;47.660;19.622;2023-04-15T04:05:29;9.70;74.10
78297;DHT22;67555;47.660;19.622;2023-04-15T04:07:55;9.70;73.90
78297;DHT22;67555;47.660;19.622;2023-04-15T04:10:21;9.70;73.90
78297;DHT22;67555;47.660;19.622;2023-04-15T04:12:46;9.70;74.00
78297;DHT22;67555;47.660;19.622;2023-04-15T04:15:12;9.70;74.20
78297;DHT22;67555;47.660;19.622;2023-04-15T04:17:38;9.70;74.20
78297;DHT22;67555;47.660;19.622;2023-04-15T04:20:03;9.70;74.20
78297;DHT22;67555;47.660;19.622;2023-04-15T04:22:30;9.70;74.30
78297;DHT22;67555;47.660;19.622;2023-04-15T04:24:56;9.70;74.40
78297;DHT22;67555;47.660;19.622;2023-04-15T04:27:24;9.60;74.50
78297;DHT22;67555;47.660;19.622;2023-04-15T04:29:50;9.60;74.50
78297;DHT22;67555;47.660;19.622;2023-04-15T04:32:15;9.70;74.50
78297;DHT22;67555;47.660;19.622;2023-04-15T04:34:41;9.70;74.40
78297;DHT22;67555;47.660;19.622;2023-04-15T04:37:07;9.70;74.50
78297;DHT22;67555;47.660;19.622;2023-04-15T04:39:32;9.80;74.30
78297;DHT22;67555;47.660;19.622;2023-04-15T04:41:58;9.90;74.10
78297;DHT22;67555;47.660;19.622;2023-04-15T04:44:24;10.00;73.80
78297;DHT22;67555;47.660;19.622;2023-04-15T04:46:49;10.10;73.50
78297;DHT22;67555;47.660;19.622;2023-04-15T04:49:15;10.20;73.40
78297;DHT22;67555;47.660;19.622;2023-04-15T04:51:41;10.10;73.40
78297;DHT22;67555;47.660;19.622;2023-04-15T04:54:06;10.10;73.50
78297;DHT22;67555;47.660;19.622;2023-04-15T04:56:33;10.20;73.50
78297;DHT22;67555;47.660;19.622;2023-04-15T04:58:59;10.10;73.60
78297;DHT22;67555;47.660;19.622;2023-04-15T05:01:25;10.10;73.60
78297;DHT22;67555;47.660;19.622;2023-04-15T05:03:52;10.10;73.50
78297;DHT22;67555;47.660;19.622;2023-04-15T05:06:17;10.00;73.60
78297;DHT22;67555;47.660;19.622;2023-04-15T05:08:43;10.00;73.60
78297;DHT22;67555;47.660;19.622;2023-04-15T05:11:09;10.00;73.60
78297;DHT22;67555;47.660;19.622;2023-04-15T05:13:35;10.00;73.60
78297;DHT22;67555;47.660;19.622;2023-04-15T05:16:04;10.00;73.60
78297;DHT22;67555;47.660;19.622;2023-04-15T05:18:30;10.00;73.50
78297;DHT22;67555;47.660;19.622;2023-04-15T05:20:56;10.00;73.50
78297;DHT22;67555;47.660;19.622;2023-04-15T05:23:22;10.00;73.40
78297;DHT22;67555;47.660;19.622;2023-04-15T05:25:48;10.00;73.50
78297;DHT22;67555;47.660;19.622;2023-04-15T05:28:13;10.00;73.60
78297;DHT22;67555;47.660;19.622;2023-04-15T05:30:39;10.00;73.70
78297;DHT22;67555;47.660;19.622;2023-04-15T05:33:05;10.10;73.60
78297;DHT22;67555;47.660;19.622;2023-04-15T05:35:31;10.30;73.30
78297;DHT22;67555;47.660;19.622;2023-04-15T05:37:57;10.50;72.80
78297;DHT22;67555;47.660;19.622;2023-04-15T05:40:22;10.70;72.50
78297;DHT22;67555;47.660;19.622;2023-04-15T05:42:48;10.90;72.00
78297;DHT22;67555;47.660;19.622;2023-04-15T05:45:14;10.90;71.80
78297;DHT22;67555;47.660;19.622;2023-04-15T05:47:40;10.90;71.60
78297;DHT22;67555;47.660;19.622;2023-04-15T05:50:06;10.90;71.60
78297;DHT22;67555;47.660;19.622;2023-04-15T05:52:32;10.90;71.60
78297;DHT22;67555;47.660;19.622;2023-04-15T05:54:58;10.90;71.70
78297;DHT22;67555;47.660;19.622;2023-04-15T05:57:24;11.00;71.50
78297;DHT22;67555;47.660;19.622;2023-04-15T05:59:50;11.10;71.20
78297;DHT22;67555;47.660;19.622;2023-04-15T06:02:18;11.20;71.00
78297;DHT22;67555;47.660;19.622;2023-04-15T06:04:44;11.20;70.80
78297;DHT22;67555;47.660;19.622;2023-04-15T06:07:10;11.10;70.90
78297;DHT22;67555;47.660;19.622;2023-04-15T06:09:35;11.20;70.90
78297;DHT22;67555;47.660;19.622;2023-04-15T06:12:01;11.10;70.90
78297;DHT22;67555;47.660;19.622;2023-04-15T06:14:27;11.10;70.90
78297;DHT22;67555;47.660;19.622;2023-04-15T06:16:53;11.10;70.80
78297;DHT22;67555;47.660;19.622;2023-04-15T06:19:18;11.20;70.70
78297;DHT22;67555;47.660;19.622;2023-04-15T06:21:45;11.30;70.60
78297;DHT22;67555;47.660;19.622;2023-04-15T06:24:11;11.20;70.40
78297;DHT22;67555;47.660;19.622;2023-04-15T06:26:36;11.10;70.40
78297;DHT22;67555;47.660;19.622;2023-04-15T06:29:02;11.10;70.40
78297;DHT22;67555;47.660;19.622;2023-04-15T06:31:28;11.10;70.50
78297;DHT22;67555;47.660;19.622;2023-04-15T06:33:54;11.30;70.40
78297;DHT22;67555;47.660;19.622;2023-04-15T06:36:20;11.40;70.10
78297;DHT22;67555;47.660;19.622;2023-04-15T06:38:46;11.50;69.80
78297;DHT22;67555;47.660;19.622;2023-04-15T06:41:12;11.70;69.40
78297;DHT22;67555;47.660;19.622;2023-04-15T06:43:38;11.70;69.20
78297;DHT22;67555;47.660;19.622;2023-04-15T06:46:04;11.80;69.00
78297;DHT22;67555;47.660;19.622;2023-04-15T06:48:30;11.80;68.80
78297;DHT22;67555;47.660;19.622;2023-04-15T06:50:55;11.90;68.80
78297;DHT22;67555;47.660;19.622;2023-04-15T06:53:24;11.90;68.70
78297;DHT22;67555;47.660;19.622;2023-04-15T06:55:51;11.90;68.60
78297;DHT22;67555;47.660;19.622;2023-04-15T06:58:17;12.00;68.40
78297;DHT22;67555;47.660;19.622;2023-04-15T07:00:42;12.10;68.20
78297;DHT22;67555;47.660;19.622;2023-04-15T07:03:10;12.10;68.10
78297;DHT22;67555;47.660;19.622;2023-04-15T07:05:37;12.00;68.10
78297;DHT22;67555;47.660;19.622;2023-04-15T07:08:03;11.90;68.00
78297;DHT22;67555;47.660;19.622;2023-04-15T07:10:29;11.90;68.20
78297;DHT22;67555;47.660;19.622;2023-04-15T07:12:55;11.70;68.20
78297;DHT22;67555;47.660;19.622;2023-04-15T07:15:21;11.70;68.30
78297;DHT22;67555;47.660;19.622;2023-04-15T07:17:48;11.90;68.10
78297;DHT22;67555;47.660;19.622;2023-04-15T07:20:13;12.00;67.80
78297;DHT22;67555;47.660;19.622;2023-04-15T07:22:39;12.10;67.40
78297;DHT22;67555;47.660;19.622;2023-04-15T07:25:05;12.10;67.20
78297;DHT22;67555;47.660;19.622;2023-04-15T07:27:32;12.20;67.00
78297;DHT22;67555;47.660;19.622;2023-04-15T07:29:57;12.20;66.80
78297;DHT22;67555;47.660;19.622;2023-04-15T07:32:23;12.30;66.70
78297;DHT22;67555;47.660;19.622;2023-04-15T07:34:49;12.50;66.50
78297;DHT22;67555;47.660;19.622;2023-04-15T07:37:15;12.50;66.30
78297;DHT22;67555;47.660;19.622;2023-04-15T07:39:40;12.60;65.90
78297;DHT22;67555;47.660;19.622;2023-04-15T07:42:07;12.80;65.60
78297;DHT22;67555;47.660;19.622;2023-04-15T07:44:33;12.90;65.30
78297;DHT22;67555;47.660;19.622;2023-04-15T07:46:58;13.00;65.30
78297;DHT22;67555;47.660;19.622;2023-04-15T07:49:24;13.20;65.00
78297;DHT22;67555;47.660;19.622;2023-04-15T07:51:50;13.30;64.80
78297;DHT22;67555;47.660;19.622;2023-04-15T07:54:16;13.30;64.70
78297;DHT22;67555;47.660;19.622;2023-04-15T07:56:42;13.30;64.40
78297;DHT22;67555;47.660;19.622;2023-04-15T07:59:08;13.30;64.60
78297;DHT22;67555;47.660;19.622;2023-04-15T08:01:34;13.50;64.70
78297;DHT22;67555;47.660;19.622;2023-04-15T08:04:00;13.50;64.40
78297;DHT22;67555;47.660;19.622;2023-04-15T08:06:27;13.40;64.60
78297;DHT22;67555;47.660;19.622;2023-04-15T08:08:53;13.50;64.60
78297;DHT22;67555;47.660;19.622;2023-04-15T08:11:20;13.60;64.40
78297;DHT22;67555;47.660;19.622;2023-04-15T08:13:46;13.70;64.10
78297;DHT22;67555;47.660;19.622;2023-04-15T08:16:22;13.90;64.00
78297;DHT22;67555;47.660;19.622;2023-04-15T08:18:50;14.30;63.50
78297;DHT22;67555;47.660;19.622;2023-04-15T08:21:17;14.60;62.90
78297;DHT22;67555;47.660;19.622;2023-04-15T08:23:44;14.90;62.30
78297;DHT22;67555;47.660;19.622;2023-04-15T08:26:11;14.90;61.90
78297;DHT22;67555;47.660;19.622;2023-04-15T08:28:39;15.00;61.70
78297;DHT22;67555;47.660;19.622;2023-04-15T08:31:05;15.00;61.50
78297;DHT22;67555;47.660;19.622;2023-04-15T08:33:31;15.00;61.20
78297;DHT22;67555;47.660;19.622;2023-04-15T08:35:56;15.20;61.20
78297;DHT22;67555;47.660;19.622;2023-04-15T08:38:22;15.30;61.10
78297;DHT22;67555;47.660;19.622;2023-04-15T08:40:48;15.50;60.90
78297;DHT22;67555;47.660;19.622;2023-04-15T08:43:21;15.60;60.70
78297;DHT22;67555;47.660;19.622;2023-04-15T08:45:51;15.50;60.50
78297;DHT22;67555;47.660;19.622;2023-04-15T08:48:18;15.40;60.60
78297;DHT22;67555;47.660;19.622;2023-04-15T08:50:45;15.30;60.70
78297;DHT22;67555;47.660;19.622;2023-04-15T08:53:11;15.20;60.90
78297;DHT22;67555;47.660;19.622;2023-04-15T08:55:42;15.20;61.00
78297;DHT22;67555;47.660;19.622;2023-04-15T08:58:09;15.20;61.00
78297;DHT22;67555;47.660;19.622;2023-04-15T09:00:37;15.40;60.60
78297;DHT22;67555;47.660;19.622;2023-04-15T09:03:06;15.50;60.20
78297;DHT22;67555;47.660;19.622;2023-04-15T09:05:36;15.60;59.80
78297;DHT22;67555;47.660;19.622;2023-04-15T09:08:03;15.50;59.60
78297;DHT22;67555;47.660;19.622;2023-04-15T09:10:30;15.40;59.60
78297;DHT22;67555;47.660;19.622;2023-04-15T09:12:56;15.30;59.70
78297;DHT22;67555;47.660;19.622;2023-04-15T09:15:25;15.10;59.90
78297;DHT22;67555;47.660;19.622;2023-04-15T09:17:54;15.00;60.10
78297;DHT22;67555;47.660;19.622;2023-04-15T09:20:21;14.90;60.20
78297;DHT22;67555;47.660;19.622;2023-04-15T09:22:48;15.00;60.40
78297;DHT22;67555;47.660;19.622;2023-04-15T09:27:50;15.40;59.90
78297;DHT22;67555;47.660;19.622;2023-04-15T09:30:16;15.80;59.40
78297;DHT22;67555;47.660;19.622;2023-04-15T09:33:08;16.10;59.00
78297;DHT22;67555;47.660;19.622;2023-04-15T09:35:38;16.40;58.20
78297;DHT22;67555;47.660;19.622;2023-04-15T09:38:08;16.60;57.80
78297;DHT22;67555;47.660;19.622;2023-04-15T09:40:41;16.80;57.50
78297;DHT22;67555;47.660;19.622;2023-04-15T09:43:09;17.00;57.20
78297;DHT22;67555;47.660;19.622;2023-04-15T09:45:37;17.00;56.80
78297;DHT22;67555;47.660;19.622;2023-04-15T09:48:20;17.10;56.50
78297;DHT22;67555;47.660;19.622;2023-04-15T09:50:48;17.20;56.20
78297;DHT22;67555;47.660;19.622;2023-04-15T09:53:21;17.20;56.40
78297;DHT22;67555;47.660;19.622;2023-04-15T09:55:58;17.20;56.20
78297;DHT22;67555;47.660;19.622;2023-04-15T09:58:31;17.30;55.90
78297;DHT22;67555;47.660;19.622;2023-04-15T10:00:59;17.40;55.70
78297;DHT22;67555;47.660;19.622;2023-04-15T10:03:30;17.50;55.30
78297;DHT22;67555;47.660;19.622;2023-04-15T10:05:58;17.60;54.80
78297;DHT22;67555;47.660;19.622;2023-04-15T10:08:27;17.60;54.50
78297;DHT22;67555;47.660;19.622;2023-04-15T10:10:53;17.60;54.60
78297;DHT22;67555;47.660;19.622;2023-04-15T10:13:24;17.50;54.60
78297;DHT22;67555;47.660;19.622;2023-04-15T10:15:57;17.50;54.20
78297;DHT22;67555;47.660;19.622;2023-04-15T10:18:25;17.50;54.00
78297;DHT22;67555;47.660;19.622;2023-04-15T10:20:52;17.50;53.90
78297;DHT22;67555;47.660;19.622;2023-04-15T10:23:19;17.50;53.60
78297;DHT22;67555;47.660;19.622;2023-04-15T10:25:46;17.50;53.20
78297;DHT22;67555;47.660;19.622;2023-04-15T10:28:15;17.30;52.90
78297;DHT22;67555;47.660;19.622;2023-04-15T10:30:42;17.20;53.00
78297;DHT22;67555;47.660;19.622;2023-04-15T10:33:08;17.00;53.00
78297;DHT22;67555;47.660;19.622;2023-04-15T10:35:35;16.60;52.60
78297;DHT22;67555;47.660;19.622;2023-04-15T10:38:01;15.80;53.40
78297;DHT22;67555;47.660;19.622;2023-04-15T10:40:29;14.90;54.90
78297;DHT22;67555;47.660;19.622;2023-04-15T10:43:01;14.10;56.20
78297;DHT22;67555;47.660;19.622;2023-04-15T10:45:31;13.30;57.60
78297;DHT22;67555;47.660;19.622;2023-04-15T10:47:58;12.80;58.70
78297;DHT22;67555;47.660;19.622;2023-04-15T10:50:25;12.50;59.70
78297;DHT22;67555;47.660;19.622;2023-04-15T10:52:52;12.30;60.20
78297;DHT22;67555;47.660;19.622;2023-04-15T10:55:23;12.10;60.70
78297;DHT22;67555;47.660;19.622;2023-04-15T10:57:53;12.20;61.00
78297;DHT22;67555;47.660;19.622;2023-04-15T11:00:24;12.30;61.20
78297;DHT22;67555;47.660;19.622;2023-04-15T11:02:58;12.50;61.20
78297;DHT22;67555;47.660;19.622;2023-04-15T11:05:47;12.70;61.00
78297;DHT22;67555;47.660;19.622;2023-04-15T11:08:13;13.00;61.00
78297;DHT22;67555;47.660;19.622;2023-04-15T11:13:15;13.70;60.40
78297;DHT22;67555;47.660;19.622;2023-04-15T11:15:45;14.30;59.80
78297;DHT22;67555;47.660;19.622;2023-04-15T11:18:21;14.70;59.00
78297;DHT22;67555;47.660;19.622;2023-04-15T11:20:49;15.10;58.30
78297;DHT22;67555;47.660;19.622;2023-04-15T11:23:27;15.30;57.60
78297;DHT22;67555;47.660;19.622;2023-04-15T11:25:57;15.40;57.40
78297;DHT22;67555;47.660;19.622;2023-04-15T11:28:30;15.40;57.40
78297;DHT22;67555;47.660;19.622;2023-04-15T11:30:56;15.50;57.40
78297;DHT22;67555;47.660;19.622;2023-04-15T11:33:23;15.60;57.40
78297;DHT22;67555;47.660;19.622;2023-04-15T11:35:51;15.50;57.60
78297;DHT22;67555;47.660;19.622;2023-04-15T11:38:18;15.20;58.00
78297;DHT22;67555;47.660;19.622;2023-04-15T11:40:44;15.00;58.50
78297;DHT22;67555;47.660;19.622;2023-04-15T11:43:14;14.80;58.60
78297;DHT22;67555;47.660;19.622;2023-04-15T11:45:58;14.70;58.50
78297;DHT22;67555;47.660;19.622;2023-04-15T11:48:26;14.50;58.60
78297;DHT22;67555;47.660;19.622;2023-04-15T11:50:57;14.30;58.80
78297;DHT22;67555;47.660;19.622;2023-04-15T11:53:23;14.10;59.30
78297;DHT22;67555;47.660;19.622;2023-04-15T11:55:52;14.00;59.80
78297;DHT22;67555;47.660;19.622;2023-04-15T11:58:22;14.20;60.20
78297;DHT22;67555;47.660;19.622;2023-04-15T12:00:54;14.50;60.10
78297;DHT22;67555;47.660;19.622;2023-04-15T12:09:00;15.00;59.30
78297;DHT22;67555;47.660;19.622;2023-04-15T12:16:47;16.40;58.30
78297;DHT22;67555;47.660;19.622;2023-04-15T12:19:21;16.80;57.80
78297;DHT22;67555;47.660;19.622;2023-04-15T12:21:48;17.10;57.40
78297;DHT22;67555;47.660;19.622;2023-04-15T12:24:14;17.40;56.60
78297;DHT22;67555;47.660;19.622;2023-04-15T12:26:48;17.50;56.20
78297;DHT22;67555;47.660;19.622;2023-04-15T12:29:15;17.60;55.90
78297;DHT22;67555;47.660;19.622;2023-04-15T12:34:14;17.40;54.70
78297;DHT22;67555;47.660;19.622;2023-04-15T12:36:40;17.20;54.80
78297;DHT22;67555;47.660;19.622;2023-04-15T12:39:06;17.00;54.70
78297;DHT22;67555;47.660;19.622;2023-04-15T12:41:32;16.90;54.40
78297;DHT22;67555;47.660;19.622;2023-04-15T12:43:58;16.80;54.20
78297;DHT22;67555;47.660;19.622;2023-04-15T12:46:25;16.70;54.40
78297;DHT22;67555;47.660;19.622;2023-04-15T12:48:50;16.70;54.10
78297;DHT22;67555;47.660;19.622;2023-04-15T12:51:18;16.60;54.20
78297;DHT22;67555;47.660;19.622;2023-04-15T12:53:44;16.60;54.00
78297;DHT22;67555;47.660;19.622;2023-04-15T12:56:09;16.60;54.20
78297;DHT22;67555;47.660;19.622;2023-04-15T12:58:35;16.80;54.20
78297;DHT22;67555;47.660;19.622;2023-04-15T13:01:01;17.00;53.90
78297;DHT22;67555;47.660;19.622;2023-04-15T13:03:28;17.30;53.80
78297;DHT22;67555;47.660;19.622;2023-04-15T13:05:53;17.40;52.70
78297;DHT22;67555;47.660;19.622;2023-04-15T13:08:19;17.20;52.20
78297;DHT22;67555;47.660;19.622;2023-04-15T13:10:45;17.20;52.50
78297;DHT22;67555;47.660;19.622;2023-04-15T13:13:11;17.00;52.50
78297;DHT22;67555;47.660;19.622;2023-04-15T13:15:36;17.00;52.60
78297;DHT22;67555;47.660;19.622;2023-04-15T13:18:05;16.90;52.90
78297;DHT22;67555;47.660;19.622;2023-04-15T13:20:30;16.80;53.00
78297;DHT22;67555;47.660;19.622;2023-04-15T13:22:56;16.80;53.10
78297;DHT22;67555;47.660;19.622;2023-04-15T13:25:22;16.80;53.00
78297;DHT22;67555;47.660;19.622;2023-04-15T13:27:48;16.80;53.00
78297;DHT22;67555;47.660;19.622;2023-04-15T13:30:14;16.70;53.00
78297;DHT22;67555;47.660;19.622;2023-04-15T13:32:40;16.70;53.00
78297;DHT22;67555;47.660;19.622;2023-04-15T13:35:06;16.80;52.90
78297;DHT22;67555;47.660;19.622;2023-04-15T13:37:32;16.70;52.90
78297;DHT22;67555;47.660;19.622;2023-04-15T13:39:57;16.70;52.80
78297;DHT22;67555;47.660;19.622;2023-04-15T13:42:43;16.60;52.80
78297;DHT22;67555;47.660;19.622;2023-04-15T13:45:09;16.40;53.00
78297;DHT22;67555;47.660;19.622;2023-04-15T13:47:35;16.40;53.10
78297;DHT22;67555;47.660;19.622;2023-04-15T13:50:01;16.20;53.30
78297;DHT22;67555;47.660;19.622;2023-04-15T13:52:27;16.10;53.30
78297;DHT22;67555;47.660;19.622;2023-04-15T13:54:52;15.90;53.60
78297;DHT22;67555;47.660;19.622;2023-04-15T13:57:18;15.80;53.70
78297;DHT22;67555;47.660;19.622;2023-04-15T13:59:44;15.80;53.70
78297;DHT22;67555;47.660;19.622;2023-04-15T14:02:10;15.70;53.90
78297;DHT22;67555;47.660;19.622;2023-04-15T14:04:35;15.80;54.00
78297;DHT22;67555;47.660;19.622;2023-04-15T14:07:02;15.80;53.90
78297;DHT22;67555;47.660;19.622;2023-04-15T14:09:27;15.80;53.80
78297;DHT22;67555;47.660;19.622;2023-04-15T14:11:53;15.80;53.70
78297;DHT22;67555;47.660;19.622;2023-04-15T14:14:19;15.80;53.80
78297;DHT22;67555;47.660;19.622;2023-04-15T14:16:45;15.80;53.90
78297;DHT22;67555;47.660;19.622;2023-04-15T14:19:12;15.90;53.90
78297;DHT22;67555;47.660;19.622;2023-04-15T14:21:38;16.00;53.80
78297;DHT22;67555;47.660;19.622;2023-04-15T14:24:04;16.10;53.60
78297;DHT22;67555;47.660;19.622;2023-04-15T14:26:30;16.20;53.30
78297;DHT22;67555;47.660;19.622;2023-04-15T14:28:55;16.20;53.00
78297;DHT22;67555;47.660;19.622;2023-04-15T14:31:21;16.20;52.90
78297;DHT22;67555;47.660;19.622;2023-04-15T14:33:47;16.20;52.90
78297;DHT22;67555;47.660;19.622;2023-04-15T14:36:12;16.10;52.90
78297;DHT22;67555;47.660;19.622;2023-04-15T14:38:38;16.00;53.10
78297;DHT22;67555;47.660;19.622;2023-04-15T14:41:07;15.80;53.60
78297;DHT22;67555;47.660;19.622;2023-04-15T14:43:34;15.60;53.60
78297;DHT22;67555;47.660;19.622;2023-04-15T14:46:00;15.60;53.70
78297;DHT22;67555;47.660;19.622;2023-04-15T14:48:26;15.50;53.70
78297;DHT22;67555;47.660;19.622;2023-04-15T14:50:52;15.50;54.00
78297;DHT22;67555;47.660;19.622;2023-04-15T14:53:18;15.40;54.00
78297;DHT22;67555;47.660;19.622;2023-04-15T14:55:44;15.40;54.10
78297;DHT22;67555;47.660;19.622;2023-04-15T14:58:10;15.40;54.30
78297;DHT22;67555;47.660;19.622;2023-04-15T15:00:37;15.30;54.40
78297;DHT22;67555;47.660;19.622;2023-04-15T15:03:05;15.30;54.60
78297;DHT22;67555;47.660;19.622;2023-04-15T15:05:38;15.30;54.50
78297;DHT22;67555;47.660;19.622;2023-04-15T15:08:06;15.30;54.70
78297;DHT22;67555;47.660;19.622;2023-04-15T15:10:33;15.20;54.90
78297;DHT22;67555;47.660;19.622;2023-04-15T15:12:58;15.10;55.10
78297;DHT22;67555;47.660;19.622;2023-04-15T15:15:24;15.00;55.30
78297;DHT22;67555;47.660;19.622;2023-04-15T15:17:50;15.00;55.50
78297;DHT22;67555;47.660;19.622;2023-04-15T15:20:16;15.00;55.70
78297;DHT22;67555;47.660;19.622;2023-04-15T15:22:43;14.90;55.80
78297;DHT22;67555;47.660;19.622;2023-04-15T15:25:09;14.90;56.00
78297;DHT22;67555;47.660;19.622;2023-04-15T15:27:35;14.90;56.10
78297;DHT22;67555;47.660;19.622;2023-04-15T15:30:02;14.80;56.10
78297;DHT22;67555;47.660;19.622;2023-04-15T15:32:29;14.80;56.30
78297;DHT22;67555;47.660;19.622;2023-04-15T15:34:56;14.80;56.40
78297;DHT22;67555;47.660;19.622;2023-04-15T15:37:21;14.80;56.50